sensor_id;sensor_type;location;lat;lon;timestamp;temperature;humidity
2391;DHT22;22957;50.824;4.360;2022-12-26T00:01:45;12.50;99.90
2391;DHT22;22957;50.824;4.360;2022-12-26T00:04:11;12.90;99.90
2391;DHT22;22957;50.824;4.360;2022-12-26T00:06:37;12.70;99.90
2391;DHT22;22957;50.824;4.360;2022-12-26T00:09:05;12.80;99.90
2391;DHT22;22957;50.824;4.360;2022-12-26T00:11:31;12.90;99.90
2391;DHT22;22957;50.824;4.360;2022-12-26T00:14:07;12.90;99.90
2391;DHT22;22957;50.824;4.360;2022-12-26T00:16:33;12.90;99.90
2391;DHT22;22957;50.824;4.360;2022-12-26T00:18:59;12.80;99.90
2391;DHT22;22957;50.824;4.360;2022-12-26T00:21:25;13.00;99.90
2391;DHT22;22957;50.824;4.360;2022-12-26T00:23:52;12.90;99.90
2391;DHT22;22957;50.824;4.360;2022-12-26T00:26:20;12.90;99.90
2391;DHT22;22957;50.824;4.360;2022-12-26T00:28:47;12.90;99.90
2391;DHT22;22957;50.824;4.360;2022-12-26T00:31:18;12.90;99.90
2391;DHT22;22957;50.824;4.360;2022-12-26T00:33:44;13.00;99.90
2391;DHT22;22957;50.824;4.360;2022-12-26T00:36:13;12.60;99.90
2391;DHT22;22957;50.824;4.360;2022-12-26T00:38:40;13.00;99.90
2391;DHT22;22957;50.824;4.360;2022-12-26T00:41:07;12.90;99.90
2391;DHT22;22957;50.824;4.360;2022-12-26T00:43:33;13.00;99.90
2391;DHT22;22957;50.824;4.360;2022-12-26T00:45:59;12.90;99.90
2391;DHT22;22957;50.824;4.360;2022-12-26T00:48:25;12.90;99.90
2391;DHT22;22957;50.824;4.360;2022-12-26T00:50:51;12.90;99.90
2391;DHT22;22957;50.824;4.360;2022-12-26T00:53:17;12.90;99.90
2391;DHT22;22957;50.824;4.360;2022-12-26T00:55:43;12.90;99.90
2391;DHT22;22957;50.824;4.360;2022-12-26T00:58:09;12.80;99.90
2391;DHT22;22957;50.824;4.360;2022-12-26T01:00:35;12.60;99.90
2391;DHT22;22957;50.824;4.360;2022-12-26T01:03:01;12.80;99.90
2391;DHT22;22957;50.824;4.360;2022-12-26T01:05:27;12.80;99.90
2391;DHT22;22957;50.824;4.360;2022-12-26T01:07:53;12.70;99.90
2391;DHT22;22957;50.824;4.360;2022-12-26T01:10:19;12.50;99.90
2391;DHT22;22957;50.824;4.360;2022-12-26T01:12:44;12.50;99.90
2391;DHT22;22957;50.824;4.360;2022-12-26T01:15:10;12.60;99.90
2391;DHT22;22957;50.824;4.360;2022-12-26T01:17:36;12.50;99.90
2391;DHT22;22957;50.824;4.360;2022-12-26T01:20:02;12.50;99.90
2391;DHT22;22957;50.824;4.360;2022-12-26T01:22:28;12.80;99.90
2391;DHT22;22957;50.824;4.360;2022-12-26T01:24:57;12.70;99.90
2391;DHT22;22957;50.824;4.360;2022-12-26T01:27:24;12.90;99.90
2391;DHT22;22957;50.824;4.360;2022-12-26T01:29:51;12.80;99.90
2391;DHT22;22957;50.824;4.360;2022-12-26T01:32:18;12.80;99.90
2391;DHT22;22957;50.824;4.360;2022-12-26T01:34:44;12.70;99.90
2391;DHT22;22957;50.824;4.360;2022-12-26T01:37:14;12.70;99.90
2391;DHT22;22957;50.824;4.360;2022-12-26T01:39:40;12.80;99.90
2391;DHT22;22957;50.824;4.360;2022-12-26T01:42:18;12.50;99.90
2391;DHT22;22957;50.824;4.360;2022-12-26T01:53:23;12.70;99.90
2391;DHT22;22957;50.824;4.360;2022-12-26T01:56:05;12.70;99.90
2391;DHT22;22957;50.824;4.360;2022-12-26T01:58:36;12.30;99.90
2391;DHT22;22957;50.824;4.360;2022-12-26T02:01:04;12.50;99.90
2391;DHT22;22957;50.824;4.360;2022-12-26T02:03:35;12.60;99.90
2391;DHT22;22957;50.824;4.360;2022-12-26T02:06:21;12.50;99.90
2391;DHT22;22957;50.824;4.360;2022-12-26T02:08:47;12.80;99.90
2391;DHT22;22957;50.824;4.360;2022-12-26T02:13:42;12.60;99.90
2391;DHT22;22957;50.824;4.360;2022-12-26T02:16:12;12.40;99.90
2391;DHT22;22957;50.824;4.360;2022-12-26T02:18:39;12.50;99.90
2391;DHT22;22957;50.824;4.360;2022-12-26T02:44:08;12.50;99.90
2391;DHT22;22957;50.824;4.360;2022-12-26T02:55:48;12.50;99.90
2391;DHT22;22957;50.824;4.360;2022-12-26T02:58:47;12.00;99.90
2391;DHT22;22957;50.824;4.360;2022-12-26T03:01:43;12.10;99.90
2391;DHT22;22957;50.824;4.360;2022-12-26T03:04:31;12.20;99.90
2391;DHT22;22957;50.824;4.360;2022-12-26T03:07:25;12.40;99.90
2391;DHT22;22957;50.824;4.360;2022-12-26T03:10:28;12.40;99.90
2391;DHT22;22957;50.824;4.360;2022-12-26T03:13:21;12.10;99.90
2391;DHT22;22957;50.824;4.360;2022-12-26T03:15:53;12.10;99.90
2391;DHT22;22957;50.824;4.360;2022-12-26T03:18:42;12.40;99.90
2391;DHT22;22957;50.824;4.360;2022-12-26T03:21:09;12.30;99.90
2391;DHT22;22957;50.824;4.360;2022-12-26T03:23:39;12.50;99.90
2391;DHT22;22957;50.824;4.360;2022-12-26T03:26:10;12.10;99.90
2391;DHT22;22957;50.824;4.360;2022-12-26T03:28:55;12.10;99.90
2391;DHT22;22957;50.824;4.360;2022-12-26T03:31:44;12.10;99.90
2391;DHT22;22957;50.824;4.360;2022-12-26T03:34:10;12.20;99.90
2391;DHT22;22957;50.824;4.360;2022-12-26T03:40:16;12.50;99.90
2391;DHT22;22957;50.824;4.360;2022-12-26T03:43:19;12.20;99.90
2391;DHT22;22957;50.824;4.360;2022-12-26T04:01:07;12.50;99.90
2391;DHT22;22957;50.824;4.360;2022-12-26T04:03:53;12.60;99.90
2391;DHT22;22957;50.824;4.360;2022-12-26T04:06:51;12.60;99.90
2391;DHT22;22957;50.824;4.360;2022-12-26T04:09:48;12.40;99.90
2391;DHT22;22957;50.824;4.360;2022-12-26T04:12:36;12.50;99.90
2391;DHT22;22957;50.824;4.360;2022-12-26T04:15:30;12.50;99.90
2391;DHT22;22957;50.824;4.360;2022-12-26T04:18:22;12.50;99.90
2391;DHT22;22957;50.824;4.360;2022-12-26T04:21:19;13.10;99.90
2391;DHT22;22957;50.824;4.360;2022-12-26T04:24:13;12.80;99.90
2391;DHT22;22957;50.824;4.360;2022-12-26T04:27:01;12.50;99.90
2391;DHT22;22957;50.824;4.360;2022-12-26T04:29:47;12.50;99.90
2391;DHT22;22957;50.824;4.360;2022-12-26T04:32:44;12.40;99.90
2391;DHT22;22957;50.824;4.360;2022-12-26T04:35:43;12.60;99.90
2391;DHT22;22957;50.824;4.360;2022-12-26T04:38:35;12.20;99.90
2391;DHT22;22957;50.824;4.360;2022-12-26T04:41:21;12.50;99.90
2391;DHT22;22957;50.824;4.360;2022-12-26T04:44:06;12.40;99.90
2391;DHT22;22957;50.824;4.360;2022-12-26T04:46:42;12.60;99.90
2391;DHT22;22957;50.824;4.360;2022-12-26T04:49:11;12.70;99.90
2391;DHT22;22957;50.824;4.360;2022-12-26T04:51:56;12.60;99.90
2391;DHT22;22957;50.824;4.360;2022-12-26T04:54:22;12.90;99.90
2391;DHT22;22957;50.824;4.360;2022-12-26T04:56:48;12.80;99.90
2391;DHT22;22957;50.824;4.360;2022-12-26T04:59:15;12.40;99.90
2391;DHT22;22957;50.824;4.360;2022-12-26T05:01:41;12.60;99.90
2391;DHT22;22957;50.824;4.360;2022-12-26T05:04:25;12.20;99.90
2391;DHT22;22957;50.824;4.360;2022-12-26T05:07:19;12.20;99.90
2391;DHT22;22957;50.824;4.360;2022-12-26T05:10:10;12.50;99.90
2391;DHT22;22957;50.824;4.360;2022-12-26T05:12:37;12.20;99.90
2391;DHT22;22957;50.824;4.360;2022-12-26T05:15:03;12.30;99.90
2391;DHT22;22957;50.824;4.360;2022-12-26T05:17:29;12.20;99.90
2391;DHT22;22957;50.824;4.360;2022-12-26T05:20:13;12.50;99.90
2391;DHT22;22957;50.824;4.360;2022-12-26T05:22:59;12.00;99.90
2391;DHT22;22957;50.824;4.360;2022-12-26T05:25:46;12.50;99.90
2391;DHT22;22957;50.824;4.360;2022-12-26T05:28:30;12.40;99.90
2391;DHT22;22957;50.824;4.360;2022-12-26T05:31:16;12.50;99.90
2391;DHT22;22957;50.824;4.360;2022-12-26T05:33:43;12.40;99.90
2391;DHT22;22957;50.824;4.360;2022-12-26T05:36:30;12.10;99.90
2391;DHT22;22957;50.824;4.360;2022-12-26T05:38:57;12.60;99.90
2391;DHT22;22957;50.824;4.360;2022-12-26T05:41:23;12.40;99.90
2391;DHT22;22957;50.824;4.360;2022-12-26T05:43:49;12.50;99.90
2391;DHT22;22957;50.824;4.360;2022-12-26T05:46:14;12.30;99.90
2391;DHT22;22957;50.824;4.360;2022-12-26T05:48:40;12.40;99.90
2391;DHT22;22957;50.824;4.360;2022-12-26T05:51:06;12.40;99.90
2391;DHT22;22957;50.824;4.360;2022-12-26T05:53:32;12.50;99.90
2391;DHT22;22957;50.824;4.360;2022-12-26T05:56:05;12.70;99.90
2391;DHT22;22957;50.824;4.360;2022-12-26T05:58:31;12.30;99.90
2391;DHT22;22957;50.824;4.360;2022-12-26T06:01:11;12.80;99.90
2391;DHT22;22957;50.824;4.360;2022-12-26T06:03:38;12.50;99.90
2391;DHT22;22957;50.824;4.360;2022-12-26T06:06:08;12.60;99.90
2391;DHT22;22957;50.824;4.360;2022-12-26T06:08:34;12.50;99.90
2391;DHT22;22957;50.824;4.360;2022-12-26T06:11:09;12.40;99.90
2391;DHT22;22957;50.824;4.360;2022-12-26T06:13:35;12.50;99.90
2391;DHT22;22957;50.824;4.360;2022-12-26T06:16:12;12.20;99.90
2391;DHT22;22957;50.824;4.360;2022-12-26T06:18:38;12.40;99.90
2391;DHT22;22957;50.824;4.360;2022-12-26T06:21:09;12.10;99.90
2391;DHT22;22957;50.824;4.360;2022-12-26T06:23:36;12.10;99.90
2391;DHT22;22957;50.824;4.360;2022-12-26T06:26:03;12.00;99.90
2391;DHT22;22957;50.824;4.360;2022-12-26T06:28:29;12.00;99.90
2391;DHT22;22957;50.824;4.360;2022-12-26T06:31:05;12.00;99.90
2391;DHT22;22957;50.824;4.360;2022-12-26T06:33:31;12.00;99.90
2391;DHT22;22957;50.824;4.360;2022-12-26T06:36:24;12.20;99.90
2391;DHT22;22957;50.824;4.360;2022-12-26T06:38:50;11.90;99.90
2391;DHT22;22957;50.824;4.360;2022-12-26T06:41:18;12.10;99.90
2391;DHT22;22957;50.824;4.360;2022-12-26T06:43:44;12.10;99.90
2391;DHT22;22957;50.824;4.360;2022-12-26T06:46:13;12.00;99.90
2391;DHT22;22957;50.824;4.360;2022-12-26T06:48:39;12.60;99.90
2391;DHT22;22957;50.824;4.360;2022-12-26T06:51:06;12.30;99.90
2391;DHT22;22957;50.824;4.360;2022-12-26T06:53:33;12.40;99.90
2391;DHT22;22957;50.824;4.360;2022-12-26T06:56:16;12.40;99.90
2391;DHT22;22957;50.824;4.360;2022-12-26T06:58:43;12.50;99.90
2391;DHT22;22957;50.824;4.360;2022-12-26T07:01:17;12.40;99.90
2391;DHT22;22957;50.824;4.360;2022-12-26T07:03:44;12.70;99.90
2391;DHT22;22957;50.824;4.360;2022-12-26T07:06:33;12.50;99.90
2391;DHT22;22957;50.824;4.360;2022-12-26T07:09:08;12.40;99.90
2391;DHT22;22957;50.824;4.360;2022-12-26T07:11:37;12.50;99.90
2391;DHT22;22957;50.824;4.360;2022-12-26T07:14:03;12.20;99.90
2391;DHT22;22957;50.824;4.360;2022-12-26T07:16:30;12.00;99.90
2391;DHT22;22957;50.824;4.360;2022-12-26T07:18:57;12.60;99.90
2391;DHT22;22957;50.824;4.360;2022-12-26T07:21:24;12.50;99.90
2391;DHT22;22957;50.824;4.360;2022-12-26T07:23:50;12.60;99.90
2391;DHT22;22957;50.824;4.360;2022-12-26T07:26:16;12.50;99.90
2391;DHT22;22957;50.824;4.360;2022-12-26T07:28:42;12.70;99.90
2391;DHT22;22957;50.824;4.360;2022-12-26T07:31:08;12.90;99.90
2391;DHT22;22957;50.824;4.360;2022-12-26T07:33:34;12.50;99.90
2391;DHT22;22957;50.824;4.360;2022-12-26T07:36:04;12.00;99.90
2391;DHT22;22957;50.824;4.360;2022-12-26T07:38:32;12.20;99.90
2391;DHT22;22957;50.824;4.360;2022-12-26T07:40:57;12.10;99.90
2391;DHT22;22957;50.824;4.360;2022-12-26T07:43:24;12.60;99.90
2391;DHT22;22957;50.824;4.360;2022-12-26T07:45:50;12.20;99.90
2391;DHT22;22957;50.824;4.360;2022-12-26T07:48:16;11.90;99.90
2391;DHT22;22957;50.824;4.360;2022-12-26T07:50:42;12.00;99.90
2391;DHT22;22957;50.824;4.360;2022-12-26T07:53:14;12.40;99.90
2391;DHT22;22957;50.824;4.360;2022-12-26T07:55:40;12.60;99.90
2391;DHT22;22957;50.824;4.360;2022-12-26T07:58:06;12.60;99.90
2391;DHT22;22957;50.824;4.360;2022-12-26T08:00:31;12.20;99.90
2391;DHT22;22957;50.824;4.360;2022-12-26T08:02:57;12.30;99.90
2391;DHT22;22957;50.824;4.360;2022-12-26T08:05:23;12.50;99.90
2391;DHT22;22957;50.824;4.360;2022-12-26T08:07:49;12.40;99.90
2391;DHT22;22957;50.824;4.360;2022-12-26T08:10:16;12.40;99.90
2391;DHT22;22957;50.824;4.360;2022-12-26T08:12:42;12.40;99.90
2391;DHT22;22957;50.824;4.360;2022-12-26T08:15:10;12.40;99.90
2391;DHT22;22957;50.824;4.360;2022-12-26T08:17:36;12.00;99.90
2391;DHT22;22957;50.824;4.360;2022-12-26T08:20:02;12.20;99.90
2391;DHT22;22957;50.824;4.360;2022-12-26T08:22:28;12.30;99.90
2391;DHT22;22957;50.824;4.360;2022-12-26T08:24:53;12.10;99.90
2391;DHT22;22957;50.824;4.360;2022-12-26T08:27:19;12.20;99.90
2391;DHT22;22957;50.824;4.360;2022-12-26T08:29:46;12.10;99.90
2391;DHT22;22957;50.824;4.360;2022-12-26T08:32:12;12.20;99.90
2391;DHT22;22957;50.824;4.360;2022-12-26T08:34:37;12.00;99.90
2391;DHT22;22957;50.824;4.360;2022-12-26T08:37:03;12.40;99.90
2391;DHT22;22957;50.824;4.360;2022-12-26T08:39:29;12.40;99.90
2391;DHT22;22957;50.824;4.360;2022-12-26T08:41:55;12.50;99.90
2391;DHT22;22957;50.824;4.360;2022-12-26T08:44:20;12.40;99.90
2391;DHT22;22957;50.824;4.360;2022-12-26T08:46:46;12.50;99.90
2391;DHT22;22957;50.824;4.360;2022-12-26T08:49:12;12.30;99.90
2391;DHT22;22957;50.824;4.360;2022-12-26T08:51:38;12.10;99.90
2391;DHT22;22957;50.824;4.360;2022-12-26T08:54:04;12.30;99.90
2391;DHT22;22957;50.824;4.360;2022-12-26T08:56:30;12.50;99.90
2391;DHT22;22957;50.824;4.360;2022-12-26T08:58:56;12.40;99.90
2391;DHT22;22957;50.824;4.360;2022-12-26T09:01:27;12.70;99.90
2391;DHT22;22957;50.824;4.360;2022-12-26T09:03:54;12.30;99.90
2391;DHT22;22957;50.824;4.360;2022-12-26T09:06:21;12.20;99.90
2391;DHT22;22957;50.824;4.360;2022-12-26T09:08:47;12.20;99.90
2391;DHT22;22957;50.824;4.360;2022-12-26T09:11:24;11.90;99.90
2391;DHT22;22957;50.824;4.360;2022-12-26T09:13:54;12.20;99.90
2391;DHT22;22957;50.824;4.360;2022-12-26T09:16:23;12.40;99.90
2391;DHT22;22957;50.824;4.360;2022-12-26T09:18:56;12.30;99.90
2391;DHT22;22957;50.824;4.360;2022-12-26T09:21:23;12.30;99.90
2391;DHT22;22957;50.824;4.360;2022-12-26T09:23:49;12.50;99.90
2391;DHT22;22957;50.824;4.360;2022-12-26T09:26:17;13.00;99.90
2391;DHT22;22957;50.824;4.360;2022-12-26T09:28:44;12.90;99.90
2391;DHT22;22957;50.824;4.360;2022-12-26T09:31:19;13.10;99.90
2391;DHT22;22957;50.824;4.360;2022-12-26T09:33:46;13.10;99.90
2391;DHT22;22957;50.824;4.360;2022-12-26T09:36:17;13.00;99.90
2391;DHT22;22957;50.824;4.360;2022-12-26T09:38:45;12.40;99.90
2391;DHT22;22957;50.824;4.360;2022-12-26T09:49:38;12.90;99.90
2391;DHT22;22957;50.824;4.360;2022-12-26T09:52:15;12.60;99.90
2391;DHT22;22957;50.824;4.360;2022-12-26T09:54:49;12.80;99.90
2391;DHT22;22957;50.824;4.360;2022-12-26T09:57:19;12.90;99.90
2391;DHT22;22957;50.824;4.360;2022-12-26T09:59:57;13.40;99.90
2391;DHT22;22957;50.824;4.360;2022-12-26T10:02:24;12.50;99.90
2391;DHT22;22957;50.824;4.360;2022-12-26T10:04:51;13.10;99.90
2391;DHT22;22957;50.824;4.360;2022-12-26T10:09:54;12.50;99.90
2391;DHT22;22957;50.824;4.360;2022-12-26T10:12:43;13.00;99.90
2391;DHT22;22957;50.824;4.360;2022-12-26T10:17:48;12.70;99.90
2391;DHT22;22957;50.824;4.360;2022-12-26T10:26:11;12.40;99.90
2391;DHT22;22957;50.824;4.360;2022-12-26T10:28:52;12.50;99.90
2391;DHT22;22957;50.824;4.360;2022-12-26T10:37:09;12.50;99.90
2391;DHT22;22957;50.824;4.360;2022-12-26T10:42:32;12.60;99.90
2391;DHT22;22957;50.824;4.360;2022-12-26T10:44:59;12.70;99.90
2391;DHT22;22957;50.824;4.360;2022-12-26T10:47:37;12.20;99.90
2391;DHT22;22957;50.824;4.360;2022-12-26T10:50:04;12.30;99.90
2391;DHT22;22957;50.824;4.360;2022-12-26T10:52:37;12.30;99.90
2391;DHT22;22957;50.824;4.360;2022-12-26T10:55:03;12.20;99.90
2391;DHT22;22957;50.824;4.360;2022-12-26T10:57:31;12.30;99.90
2391;DHT22;22957;50.824;4.360;2022-12-26T11:00:00;12.50;99.90
2391;DHT22;22957;50.824;4.360;2022-12-26T11:02:29;12.80;99.90
2391;DHT22;22957;50.824;4.360;2022-12-26T11:05:08;12.40;99.90
2391;DHT22;22957;50.824;4.360;2022-12-26T11:07:37;12.70;99.90
2391;DHT22;22957;50.824;4.360;2022-12-26T11:10:05;12.80;99.90
2391;DHT22;22957;50.824;4.360;2022-12-26T11:15:06;12.50;99.90
2391;DHT22;22957;50.824;4.360;2022-12-26T11:17:41;12.60;99.90
2391;DHT22;22957;50.824;4.360;2022-12-26T11:22:40;13.00;99.90
2391;DHT22;22957;50.824;4.360;2022-12-26T11:27:41;13.00;99.90
2391;DHT22;22957;50.824;4.360;2022-12-26T11:32:40;13.50;99.90
2391;DHT22;22957;50.824;4.360;2022-12-26T11:35:19;13.40;99.90
2391;DHT22;22957;50.824;4.360;2022-12-26T11:37:56;12.80;99.90
2391;DHT22;22957;50.824;4.360;2022-12-26T11:40:26;12.90;99.90
2391;DHT22;22957;50.824;4.360;2022-12-26T11:42:56;12.90;99.90
2391;DHT22;22957;50.824;4.360;2022-12-26T11:45:28;13.50;99.90
2391;DHT22;22957;50.824;4.360;2022-12-26T11:47:58;13.50;99.90
2391;DHT22;22957;50.824;4.360;2022-12-26T11:50:26;13.20;99.90
2391;DHT22;22957;50.824;4.360;2022-12-26T11:58:16;13.10;99.90
2391;DHT22;22957;50.824;4.360;2022-12-26T12:01:03;12.90;99.90
2391;DHT22;22957;50.824;4.360;2022-12-26T12:11:51;12.30;99.90
2391;DHT22;22957;50.824;4.360;2022-12-26T12:17:45;12.70;99.90
2391;DHT22;22957;50.824;4.360;2022-12-26T12:20:36;12.80;99.90
2391;DHT22;22957;50.824;4.360;2022-12-26T12:34:32;12.60;99.90
2391;DHT22;22957;50.824;4.360;2022-12-26T12:43:53;13.10;99.90
2391;DHT22;22957;50.824;4.360;2022-12-26T12:46:09;13.20;99.90
2391;DHT22;22957;50.824;4.360;2022-12-26T12:56:58;12.30;99.90
2391;DHT22;22957;50.824;4.360;2022-12-26T12:59:47;12.50;99.90
2391;DHT22;22957;50.824;4.360;2022-12-26T13:03:07;12.70;99.90
2391;DHT22;22957;50.824;4.360;2022-12-26T13:05:16;12.60;99.90
2391;DHT22;22957;50.824;4.360;2022-12-26T13:07:48;12.90;99.90
2391;DHT22;22957;50.824;4.360;2022-12-26T13:10:24;12.90;99.90
2391;DHT22;22957;50.824;4.360;2022-12-26T13:12:52;12.60;99.90
2391;DHT22;22957;50.824;4.360;2022-12-26T13:17:52;12.70;99.90
2391;DHT22;22957;50.824;4.360;2022-12-26T13:23:15;12.90;99.90
2391;DHT22;22957;50.824;4.360;2022-12-26T13:26:13;12.40;99.90
2391;DHT22;22957;50.824;4.360;2022-12-26T13:28:57;12.00;99.90
2391;DHT22;22957;50.824;4.360;2022-12-26T13:31:24;12.00;99.90
2391;DHT22;22957;50.824;4.360;2022-12-26T13:33:50;12.60;99.90
2391;DHT22;22957;50.824;4.360;2022-12-26T13:36:52;12.70;99.90
2391;DHT22;22957;50.824;4.360;2022-12-26T13:44:51;13.00;99.90
2391;DHT22;22957;50.824;4.360;2022-12-26T13:47:37;12.90;99.90
2391;DHT22;22957;50.824;4.360;2022-12-26T13:53:31;12.80;99.90
2391;DHT22;22957;50.824;4.360;2022-12-26T13:56:01;13.00;99.90
2391;DHT22;22957;50.824;4.360;2022-12-26T14:23:00;11.20;99.90
2391;DHT22;22957;50.824;4.360;2022-12-26T14:28:14;11.50;99.90
2391;DHT22;22957;50.824;4.360;2022-12-26T14:44:56;10.90;99.90
2391;DHT22;22957;50.824;4.360;2022-12-26T15:00:50;11.10;99.90
2391;DHT22;22957;50.824;4.360;2022-12-26T15:39:49;9.40;99.90
2391;DHT22;22957;50.824;4.360;2022-12-26T15:45:52;9.30;99.90
2391;DHT22;22957;50.824;4.360;2022-12-26T15:54:32;9.20;99.90
2391;DHT22;22957;50.824;4.360;2022-12-26T16:00:10;9.00;99.90
2391;DHT22;22957;50.824;4.360;2022-12-26T16:02:47;8.80;99.90
2391;DHT22;22957;50.824;4.360;2022-12-26T16:08:42;8.60;99.90
2391;DHT22;22957;50.824;4.360;2022-12-26T16:11:18;8.30;99.90
2391;DHT22;22957;50.824;4.360;2022-12-26T16:14:00;8.10;99.90
2391;DHT22;22957;50.824;4.360;2022-12-26T16:16:36;7.70;99.90
2391;DHT22;22957;50.824;4.360;2022-12-26T16:19:23;8.20;99.90
2391;DHT22;22957;50.824;4.360;2022-12-26T16:22:03;8.10;99.90
2391;DHT22;22957;50.824;4.360;2022-12-26T16:24:48;8.20;99.90
2391;DHT22;22957;50.824;4.360;2022-12-26T16:27:20;7.60;99.90
2391;DHT22;22957;50.824;4.360;2022-12-26T16:29:49;7.80;99.90
2391;DHT22;22957;50.824;4.360;2022-12-26T16:32:19;7.60;99.90
2391;DHT22;22957;50.824;4.360;2022-12-26T16:34:46;7.70;99.90
2391;DHT22;22957;50.824;4.360;2022-12-26T16:37:18;7.40;99.90
2391;DHT22;22957;50.824;4.360;2022-12-26T16:40:02;7.50;99.90
2391;DHT22;22957;50.824;4.360;2022-12-26T16:42:31;7.90;99.90
2391;DHT22;22957;50.824;4.360;2022-12-26T16:44:57;7.60;99.90
2391;DHT22;22957;50.824;4.360;2022-12-26T16:47:23;7.50;99.90
2391;DHT22;22957;50.824;4.360;2022-12-26T16:49:50;8.00;99.90
2391;DHT22;22957;50.824;4.360;2022-12-26T16:52:37;7.70;99.90
2391;DHT22;22957;50.824;4.360;2022-12-26T16:55:22;7.80;99.90
2391;DHT22;22957;50.824;4.360;2022-12-26T16:57:52;7.70;99.90
2391;DHT22;22957;50.824;4.360;2022-12-26T17:00:19;7.70;99.90
2391;DHT22;22957;50.824;4.360;2022-12-26T17:02:48;7.50;99.90
2391;DHT22;22957;50.824;4.360;2022-12-26T17:05:32;7.40;99.90
2391;DHT22;22957;50.824;4.360;2022-12-26T17:08:00;7.70;99.90
2391;DHT22;22957;50.824;4.360;2022-12-26T17:12:58;7.80;99.90
2391;DHT22;22957;50.824;4.360;2022-12-26T17:15:31;7.40;99.90
2391;DHT22;22957;50.824;4.360;2022-12-26T17:20:55;7.60;99.90
2391;DHT22;22957;50.824;4.360;2022-12-26T17:23:38;7.80;99.90
2391;DHT22;22957;50.824;4.360;2022-12-26T17:26:22;7.40;99.90
2391;DHT22;22957;50.824;4.360;2022-12-26T17:28:49;7.00;99.90
2391;DHT22;22957;50.824;4.360;2022-12-26T17:31:27;7.00;99.90
2391;DHT22;22957;50.824;4.360;2022-12-26T17:33:56;6.60;99.90
2391;DHT22;22957;50.824;4.360;2022-12-26T17:36:29;6.80;99.90
2391;DHT22;22957;50.824;4.360;2022-12-26T17:38:56;6.90;99.90
2391;DHT22;22957;50.824;4.360;2022-12-26T17:41:22;7.20;99.90
2391;DHT22;22957;50.824;4.360;2022-12-26T17:43:48;6.80;99.90
2391;DHT22;22957;50.824;4.360;2022-12-26T17:46:16;6.90;99.90
2391;DHT22;22957;50.824;4.360;2022-12-26T17:48:42;7.10;99.90
2391;DHT22;22957;50.824;4.360;2022-12-26T17:51:15;7.50;99.90
2391;DHT22;22957;50.824;4.360;2022-12-26T17:53:46;7.10;99.90
2391;DHT22;22957;50.824;4.360;2022-12-26T17:56:18;7.20;99.90
2391;DHT22;22957;50.824;4.360;2022-12-26T17:58:47;7.40;99.90
2391;DHT22;22957;50.824;4.360;2022-12-26T18:01:13;6.80;99.90
2391;DHT22;22957;50.824;4.360;2022-12-26T18:03:40;6.90;99.90
2391;DHT22;22957;50.824;4.360;2022-12-26T18:06:06;6.90;99.90
2391;DHT22;22957;50.824;4.360;2022-12-26T18:08:41;7.00;99.90
2391;DHT22;22957;50.824;4.360;2022-12-26T18:11:10;6.80;99.90
2391;DHT22;22957;50.824;4.360;2022-12-26T18:13:36;6.70;99.90
2391;DHT22;22957;50.824;4.360;2022-12-26T18:16:03;7.20;99.90
2391;DHT22;22957;50.824;4.360;2022-12-26T18:21:04;7.30;99.90
2391;DHT22;22957;50.824;4.360;2022-12-26T18:23:30;7.00;99.90
2391;DHT22;22957;50.824;4.360;2022-12-26T18:25:59;7.00;99.90
2391;DHT22;22957;50.824;4.360;2022-12-26T18:28:26;7.10;99.90
2391;DHT22;22957;50.824;4.360;2022-12-26T18:30:53;7.00;99.90
2391;DHT22;22957;50.824;4.360;2022-12-26T18:33:19;7.00;99.90
2391;DHT22;22957;50.824;4.360;2022-12-26T18:35:46;7.00;99.90
2391;DHT22;22957;50.824;4.360;2022-12-26T18:38:17;7.10;99.90
2391;DHT22;22957;50.824;4.360;2022-12-26T18:40:46;7.50;99.90
2391;DHT22;22957;50.824;4.360;2022-12-26T18:43:15;7.10;99.90
2391;DHT22;22957;50.824;4.360;2022-12-26T18:45:42;7.30;99.90
2391;DHT22;22957;50.824;4.360;2022-12-26T18:48:12;7.30;99.90
2391;DHT22;22957;50.824;4.360;2022-12-26T18:50:37;7.50;99.90
2391;DHT22;22957;50.824;4.360;2022-12-26T18:53:03;7.50;99.90
2391;DHT22;22957;50.824;4.360;2022-12-26T18:55:29;7.60;99.90
2391;DHT22;22957;50.824;4.360;2022-12-26T18:57:55;7.60;99.90
2391;DHT22;22957;50.824;4.360;2022-12-26T19:00:21;8.00;99.90
2391;DHT22;22957;50.824;4.360;2022-12-26T19:02:48;7.50;99.90
2391;DHT22;22957;50.824;4.360;2022-12-26T19:05:21;7.70;99.90
2391;DHT22;22957;50.824;4.360;2022-12-26T19:07:47;7.60;99.90
2391;DHT22;22957;50.824;4.360;2022-12-26T19:10:20;7.30;99.90
2391;DHT22;22957;50.824;4.360;2022-12-26T19:12:47;7.60;99.90
2391;DHT22;22957;50.824;4.360;2022-12-26T19:15:13;7.70;99.90
2391;DHT22;22957;50.824;4.360;2022-12-26T19:17:40;7.40;99.90
2391;DHT22;22957;50.824;4.360;2022-12-26T19:20:14;7.40;99.90
2391;DHT22;22957;50.824;4.360;2022-12-26T19:22:41;7.60;99.90
2391;DHT22;22957;50.824;4.360;2022-12-26T19:25:07;7.80;99.90
2391;DHT22;22957;50.824;4.360;2022-12-26T19:27:36;7.10;99.90
2391;DHT22;22957;50.824;4.360;2022-12-26T19:30:01;7.50;99.90
2391;DHT22;22957;50.824;4.360;2022-12-26T19:32:27;7.30;99.90
2391;DHT22;22957;50.824;4.360;2022-12-26T19:34:53;7.20;99.90
2391;DHT22;22957;50.824;4.360;2022-12-26T19:37:21;7.20;99.90
2391;DHT22;22957;50.824;4.360;2022-12-26T19:39:47;7.40;99.90
2391;DHT22;22957;50.824;4.360;2022-12-26T19:42:12;7.50;99.90
2391;DHT22;22957;50.824;4.360;2022-12-26T19:44:38;7.40;99.90
2391;DHT22;22957;50.824;4.360;2022-12-26T19:47:04;7.40;99.90
2391;DHT22;22957;50.824;4.360;2022-12-26T19:49:29;6.90;99.90
2391;DHT22;22957;50.824;4.360;2022-12-26T19:51:55;7.00;99.90
2391;DHT22;22957;50.824;4.360;2022-12-26T19:54:21;7.20;99.90
2391;DHT22;22957;50.824;4.360;2022-12-26T19:56:47;7.40;99.90
2391;DHT22;22957;50.824;4.360;2022-12-26T19:59:12;7.10;99.90
2391;DHT22;22957;50.824;4.360;2022-12-26T20:01:39;7.50;99.90
2391;DHT22;22957;50.824;4.360;2022-12-26T20:04:05;7.50;99.90
2391;DHT22;22957;50.824;4.360;2022-12-26T20:06:33;7.70;99.90
2391;DHT22;22957;50.824;4.360;2022-12-26T20:09:02;7.30;99.90
2391;DHT22;22957;50.824;4.360;2022-12-26T20:11:32;7.10;99.90
2391;DHT22;22957;50.824;4.360;2022-12-26T20:14:00;7.60;99.90
2391;DHT22;22957;50.824;4.360;2022-12-26T20:16:27;7.30;99.90
2391;DHT22;22957;50.824;4.360;2022-12-26T20:18:53;7.70;99.90
2391;DHT22;22957;50.824;4.360;2022-12-26T20:21:19;7.20;99.90
2391;DHT22;22957;50.824;4.360;2022-12-26T20:23:44;7.70;99.90
2391;DHT22;22957;50.824;4.360;2022-12-26T20:26:21;7.60;99.90
2391;DHT22;22957;50.824;4.360;2022-12-26T20:28:48;7.50;99.90
2391;DHT22;22957;50.824;4.360;2022-12-26T20:31:17;7.40;99.90
2391;DHT22;22957;50.824;4.360;2022-12-26T20:33:44;7.80;99.90
2391;DHT22;22957;50.824;4.360;2022-12-26T20:36:22;7.50;99.90
2391;DHT22;22957;50.824;4.360;2022-12-26T20:38:53;7.70;99.90
2391;DHT22;22957;50.824;4.360;2022-12-26T20:41:19;7.50;99.90
2391;DHT22;22957;50.824;4.360;2022-12-26T20:43:47;7.50;99.90
2391;DHT22;22957;50.824;4.360;2022-12-26T20:46:19;7.60;99.90
2391;DHT22;22957;50.824;4.360;2022-12-26T20:48:45;7.00;99.90
2391;DHT22;22957;50.824;4.360;2022-12-26T20:51:14;7.30;99.90